createdAt,value
2022-09-18T00:01:15.677Z,90.47
2022-09-18T00:03:43.017Z,90.58
2022-09-18T00:06:13.871Z,90.79
2022-09-18T00:08:43.205Z,90.84
2022-09-18T00:11:13.160Z,91.05
2022-09-18T00:13:42.023Z,91.23
2022-09-18T00:16:11.013Z,91.53
2022-09-18T00:18:38.731Z,91.62
2022-09-18T00:21:08.505Z,91.80
2022-09-18T00:23:37.170Z,91.82
2022-09-18T00:26:05.645Z,91.77
2022-09-18T00:28:33.417Z,92.01
2022-09-18T00:31:13.761Z,92.02
2022-09-18T00:33:41.392Z,92.00
2022-09-18T00:36:12.311Z,92.21
2022-09-18T00:38:39.628Z,92.75
2022-09-18T00:41:10.628Z,92.53
2022-09-18T00:43:38.150Z,92.73
2022-09-18T00:46:26.494Z,93.07
2022-09-18T00:49:06.841Z,93.09
2022-09-18T00:51:35.766Z,92.75
2022-09-18T00:54:26.446Z,92.64
2022-09-18T00:56:56.093Z,92.75
2022-09-18T00:59:26.921Z,92.84
2022-09-18T01:01:55.461Z,92.87
2022-09-18T01:04:22.998Z,93.28
2022-09-18T01:06:54.135Z,93.04
2022-09-18T01:09:41.716Z,93.06
2022-09-18T01:12:12.709Z,92.94
2022-09-18T01:14:56.132Z,92.97
2022-09-18T01:17:42.872Z,93.07
2022-09-18T01:20:34.102Z,92.74
2022-09-18T01:23:08.029Z,92.82
2022-09-18T01:26:03.407Z,92.82
2022-09-18T01:29:07.744Z,92.75
2022-09-18T01:31:47.604Z,92.70
2022-09-18T01:34:24.727Z,92.80
2022-09-18T01:37:01.833Z,92.72
2022-09-18T01:39:32.449Z,92.75
2022-09-18T01:42:02.445Z,92.78
2022-09-18T01:44:31.998Z,92.83
2022-09-18T01:47:03.507Z,92.66
2022-09-18T01:49:36.405Z,92.56
2022-09-18T01:52:10.401Z,92.43
2022-09-18T01:54:41.885Z,92.25
2022-09-18T01:57:34.063Z,92.29
2022-09-18T02:00:05.151Z,92.04
2022-09-18T02:02:59.041Z,91.72
2022-09-18T02:05:33.328Z,91.67
2022-09-18T02:08:04.628Z,91.78
2022-09-18T02:10:34.324Z,91.75
2022-09-18T02:13:02.807Z,91.67
2022-09-18T02:15:34.975Z,91.79
2022-09-18T02:18:07.613Z,91.50
2022-09-18T02:20:42.058Z,91.04
2022-09-18T02:23:10.035Z,90.87
2022-09-18T02:25:55.544Z,90.46
2022-09-18T02:28:23.992Z,90.47
2022-09-18T02:30:51.661Z,90.71
2022-09-18T02:33:33.072Z,90.75
2022-09-18T02:36:37.047Z,90.57
2022-09-18T02:39:24.865Z,90.63
2022-09-18T02:42:16.995Z,90.38
2022-09-18T02:45:12.221Z,90.37
2022-09-18T02:47:55.725Z,90.43
2022-09-18T02:50:41.773Z,90.64
2022-09-18T02:53:22.017Z,90.36
2022-09-18T02:55:52.563Z,90.47
2022-09-18T02:58:29.380Z,90.51
2022-09-18T03:00:58.903Z,90.30
2022-09-18T03:03:29.684Z,90.14
2022-09-18T03:05:59.070Z,89.16
2022-09-18T03:08:26.448Z,88.74
2022-09-18T03:10:53.824Z,88.27
2022-09-18T03:13:21.093Z,88.16
2022-09-18T03:15:58.966Z,87.92
2022-09-18T04:10:53.766Z,86.42
2022-09-18T04:13:21.944Z,85.57
2022-09-18T04:15:49.988Z,86.04
2022-09-18T04:18:17.559Z,86.00
2022-09-18T04:20:45.569Z,85.51
2022-09-18T04:23:14.301Z,85.44
2022-09-18T04:25:43.267Z,85.54
2022-09-18T04:28:11.294Z,85.74
2022-09-18T04:30:40.769Z,85.27
2022-09-18T04:33:08.125Z,84.94
2022-09-18T04:35:35.784Z,85.08
2022-09-18T04:38:03.929Z,85.03
2022-09-18T04:40:31.338Z,85.09
2022-09-18T04:43:00.259Z,85.32
2022-09-18T04:45:27.983Z,84.71
2022-09-18T04:47:55.409Z,84.68
2022-09-18T04:50:24.075Z,84.72
2022-09-18T04:53:05.572Z,84.76
2022-09-18T04:55:33.443Z,84.45
2022-09-18T04:58:00.929Z,84.87
2022-09-18T05:00:28.536Z,84.49
2022-09-18T05:02:57.600Z,84.87
2022-09-18T05:05:27.697Z,84.91
2022-09-18T05:08:00.011Z,84.50
2022-09-18T05:10:27.649Z,84.80
2022-09-18T05:12:55.034Z,84.54
2022-09-18T05:15:22.690Z,84.38
2022-09-18T05:18:11.139Z,83.96
2022-09-18T05:20:35.971Z,83.99
2022-09-18T05:23:06.507Z,83.67
2022-09-18T05:25:33.832Z,83.84
2022-09-18T05:28:03.069Z,83.96
2022-09-18T05:30:32.594Z,83.66
2022-09-18T05:33:04.623Z,83.35
2022-09-18T05:35:33.979Z,83.92
2022-09-18T05:38:02.173Z,83.21
2022-09-18T05:40:36.692Z,83.35
2022-09-18T05:43:05.181Z,83.30
2022-09-18T05:45:33.558Z,82.70
2022-09-18T05:48:04.869Z,80.89
2022-09-18T05:50:33.195Z,82.23
2022-09-18T05:53:06.041Z,81.58
2022-09-18T05:55:38.156Z,81.32
2022-09-18T05:58:06.731Z,81.75
2022-09-18T06:00:35.362Z,81.30
2022-09-18T06:03:08.241Z,81.14
2022-09-18T06:05:39.795Z,81.11
2022-09-18T06:08:09.667Z,81.14
2022-09-18T06:10:38.998Z,79.92
2022-09-18T06:13:11.546Z,79.06
2022-09-18T06:15:46.265Z,79.93
2022-09-18T06:18:14.571Z,80.84
2022-09-18T06:20:42.539Z,80.90
2022-09-18T06:23:10.259Z,80.90
2022-09-18T06:25:42.260Z,81.01
2022-09-18T06:28:10.027Z,80.03
2022-09-18T06:30:37.423Z,79.40
2022-09-18T06:33:06.588Z,79.82
2022-09-18T06:35:35.894Z,78.37
2022-09-18T06:38:04.856Z,79.16
2022-09-18T06:40:39.967Z,79.23
2022-09-18T06:43:11.789Z,78.12
2022-09-18T06:45:51.926Z,78.06
2022-09-18T06:48:21.435Z,77.50
2022-09-18T06:50:54.651Z,77.77
2022-09-18T06:53:23.245Z,77.99
2022-09-18T06:55:55.768Z,76.94
2022-09-18T06:58:23.103Z,77.43
2022-09-18T07:00:51.062Z,77.41
2022-09-18T07:03:20.173Z,77.53
2022-09-18T07:06:12.825Z,76.51
2022-09-18T07:08:51.779Z,76.60
2022-09-18T07:11:22.074Z,76.82
2022-09-18T07:13:53.710Z,77.03
2022-09-18T07:16:21.023Z,77.46
2022-09-18T07:18:48.506Z,77.42
2022-09-18T07:21:19.423Z,76.91
2022-09-18T07:23:46.729Z,76.74
2022-09-18T07:26:14.189Z,76.53
2022-09-18T07:28:42.499Z,76.56
2022-09-18T07:31:12.763Z,76.90
2022-09-18T07:33:43.102Z,75.92
2022-09-18T07:36:13.009Z,74.78
2022-09-18T07:38:41.945Z,74.99
2022-09-18T07:41:09.893Z,73.73
2022-09-18T07:43:36.932Z,73.72
2022-09-18T07:46:04.426Z,73.22
2022-09-18T07:48:39.596Z,71.43
2022-09-18T07:51:16.754Z,73.26
2022-09-18T07:53:48.650Z,73.30
2022-09-18T07:56:17.716Z,71.72
2022-09-18T07:58:45.453Z,72.52
2022-09-18T08:01:22.029Z,72.49
2022-09-18T08:03:53.567Z,72.55
2022-09-18T08:06:38.240Z,72.73
2022-09-18T08:09:11.049Z,72.96
2022-09-18T08:11:40.341Z,73.25
2022-09-18T08:14:10.607Z,73.75
2022-09-18T08:16:57.626Z,74.21
2022-09-18T08:19:28.766Z,73.91
2022-09-18T08:22:00.829Z,74.49
2022-09-18T08:24:28.509Z,75.09
2022-09-18T08:26:57.380Z,75.19
2022-09-18T08:29:25.246Z,75.54
2022-09-18T08:31:59.361Z,75.99
2022-09-18T08:34:31.026Z,76.17
2022-09-18T08:37:02.324Z,75.89
2022-09-18T08:39:52.025Z,76.26
2022-09-18T08:42:49.067Z,76.60
2022-09-18T08:45:22.245Z,76.73
2022-09-18T08:47:53.318Z,76.98
2022-09-18T08:50:26.981Z,76.89
2022-09-18T08:53:03.488Z,76.01
2022-09-18T08:55:43.507Z,76.93
2022-09-18T08:58:40.275Z,76.47
2022-09-18T09:01:23.762Z,76.13
2022-09-18T09:04:08.870Z,76.93
2022-09-18T09:06:42.945Z,76.65
2022-09-18T09:09:32.639Z,77.08
2022-09-18T09:12:13.467Z,77.11
2022-09-18T09:15:02.094Z,77.11
2022-09-18T09:17:49.202Z,77.47
2022-09-18T09:20:23.746Z,77.84
2022-09-18T09:23:02.393Z,78.43
2022-09-18T09:25:37.023Z,78.40
2022-09-18T09:28:20.845Z,78.90
2022-09-18T09:30:59.941Z,78.73
2022-09-18T09:34:00.505Z,78.78
2022-09-18T09:36:34.357Z,78.63
2022-09-18T09:39:22.395Z,78.26
2022-09-18T09:42:05.057Z,78.19
2022-09-18T09:44:49.264Z,78.38
2022-09-18T09:47:28.156Z,78.22
2022-09-18T09:50:10.771Z,78.35
2022-09-18T09:52:40.735Z,78.54
2022-09-18T09:55:19.041Z,78.94
2022-09-18T09:58:12.738Z,79.20
2022-09-18T10:00:53.829Z,79.42
2022-09-18T10:03:43.285Z,79.73
2022-09-18T10:06:40.846Z,79.46
2022-09-18T10:09:33.287Z,79.16
2022-09-18T10:12:12.676Z,79.08
2022-09-18T10:14:43.085Z,79.51
2022-09-18T10:17:12.184Z,79.78
2022-09-18T10:19:40.916Z,80.01
2022-09-18T10:22:12.423Z,79.71
2022-09-18T10:24:55.795Z,79.77
2022-09-18T10:27:28.503Z,80.09
2022-09-18T10:30:10.329Z,79.49
2022-09-18T10:32:46.510Z,79.87
2022-09-18T10:35:32.901Z,80.15
2022-09-18T10:38:04.319Z,79.67
2022-09-18T10:40:39.901Z,79.03
2022-09-18T10:43:23.226Z,79.20
2022-09-18T10:45:56.684Z,79.61
2022-09-18T10:48:27.803Z,79.46
2022-09-18T10:50:59.852Z,77.61
2022-09-18T10:53:39.277Z,77.59
2022-09-18T10:56:21.685Z,77.21
2022-09-18T10:58:57.083Z,78.11
2022-09-18T11:01:26.056Z,76.61
2022-09-18T11:04:03.436Z,76.15
2022-09-18T11:06:36.598Z,75.73
2022-09-18T11:09:15.923Z,75.54
2022-09-18T11:11:48.151Z,75.38
2022-09-18T11:14:26.486Z,71.88
2022-09-18T11:17:01.161Z,73.29
2022-09-18T11:19:37.531Z,72.54
2022-09-18T11:22:10.231Z,72.16
2022-09-18T11:24:41.990Z,72.29
2022-09-18T11:27:21.696Z,72.46
2022-09-18T11:29:49.531Z,72.00
2022-09-18T11:32:25.883Z,70.83
2022-09-18T11:35:04.731Z,70.81
2022-09-18T11:37:39.669Z,71.01
2022-09-18T11:40:27.159Z,71.09
2022-09-18T11:43:00.242Z,70.20
2022-09-18T11:46:12.709Z,69.11
2022-09-18T11:48:51.965Z,69.18
2022-09-18T11:51:28.312Z,68.90
2022-09-18T11:54:04.309Z,69.52
2022-09-18T11:56:51.270Z,70.04
2022-09-18T11:59:42.663Z,69.09
2022-09-18T12:02:28.395Z,70.26
2022-09-18T12:05:12.768Z,70.82
2022-09-18T12:08:00.556Z,71.37
2022-09-18T12:10:55.012Z,72.16
2022-09-18T12:13:40.292Z,73.05
2022-09-18T12:16:14.427Z,73.53
2022-09-18T12:18:51.780Z,73.88
2022-09-18T12:21:22.873Z,74.19
2022-09-18T12:23:51.056Z,74.35
2022-09-18T12:26:26.905Z,74.13
2022-09-18T12:28:59.871Z,73.91
2022-09-18T12:31:43.621Z,73.18
2022-09-18T12:34:27.975Z,72.20
2022-09-18T12:37:17.567Z,70.75
2022-09-18T12:39:56.215Z,70.74
2022-09-18T12:42:39.443Z,70.90
2022-09-18T12:45:31.739Z,71.14
2022-09-18T12:48:09.357Z,70.45
2022-09-18T12:50:46.642Z,70.21
2022-09-18T12:53:20.301Z,67.57
2022-09-18T12:56:21.220Z,68.06
2022-09-18T12:59:17.621Z,68.73
2022-09-18T13:02:07.989Z,67.17
2022-09-18T13:04:39.960Z,67.64
2022-09-18T13:19:20.413Z,67.06
2022-09-18T13:20:40.236Z,66.68
2022-09-18T13:23:47.927Z,65.96
2022-09-18T13:30:53.661Z,63.87
2022-09-18T13:33:57.379Z,64.66
2022-09-18T13:36:51.920Z,64.91
2022-09-18T13:39:46.238Z,65.98
2022-09-18T13:42:24.203Z,66.63
2022-09-18T13:46:06.024Z,67.15
2022-09-18T13:52:04.321Z,67.73
2022-09-18T14:13:52.287Z,64.13
2022-09-18T14:16:53.494Z,64.58
2022-09-18T14:40:08.306Z,66.72
2022-09-18T14:42:56.985Z,67.28
2022-09-18T15:14:17.873Z,64.58
2022-09-18T15:21:36.693Z,61.15
2022-09-18T15:24:46.308Z,58.62
2022-09-18T15:57:12.615Z,60.78
2022-09-18T15:59:40.408Z,60.77
2022-09-18T16:02:36.288Z,60.67
2022-09-18T16:05:22.884Z,61.25
2022-09-18T16:08:10.690Z,61.03
2022-09-18T16:18:34.389Z,61.67
2022-09-18T16:21:04.241Z,61.71
2022-09-18T16:23:38.282Z,62.03
2022-09-18T16:26:14.768Z,62.24
2022-09-18T16:28:45.123Z,62.35
2022-09-18T16:31:14.685Z,62.52
2022-09-18T16:33:56.859Z,62.76
2022-09-18T16:36:30.982Z,62.28
2022-09-18T16:39:00.971Z,62.12
2022-09-18T16:41:29.372Z,62.41
2022-09-18T16:43:56.733Z,62.66
2022-09-18T16:46:27.578Z,62.80
2022-09-18T16:48:55.691Z,62.80
2022-09-18T16:51:23.252Z,62.94
2022-09-18T16:53:51.550Z,63.09
2022-09-18T16:56:22.732Z,63.12
2022-09-18T16:58:51.799Z,63.24
2022-09-18T17:01:23.881Z,63.27
2022-09-18T17:03:58.083Z,63.35
2022-09-18T17:06:25.118Z,63.76
2022-09-18T17:08:52.653Z,64.37
2022-09-18T17:11:24.979Z,64.25
2022-09-18T17:14:02.392Z,64.67
2022-09-18T17:16:44.118Z,64.52
2022-09-18T17:19:03.133Z,64.42
2022-09-18T17:21:42.498Z,64.25
2022-09-18T17:24:25.493Z,64.48
2022-09-18T17:26:53.448Z,64.38
2022-09-18T17:29:21.238Z,64.38
2022-09-18T17:31:48.975Z,64.52
2022-09-18T17:34:18.311Z,64.60
2022-09-18T17:36:45.605Z,64.63
2022-09-18T17:39:13.145Z,64.82
2022-09-18T17:41:42.025Z,64.86
2022-09-18T17:44:09.959Z,65.01
2022-09-18T17:46:37.537Z,65.34
2022-09-18T17:49:06.012Z,65.71
2022-09-18T17:51:33.667Z,65.79
2022-09-18T17:54:03.523Z,65.87
2022-09-18T17:56:32.967Z,66.04
2022-09-18T17:59:03.195Z,66.15
2022-09-18T18:01:31.220Z,66.16
2022-09-18T18:03:59.825Z,65.90
2022-09-18T18:06:27.711Z,66.15
2022-09-18T18:08:56.878Z,66.58
2022-09-18T18:11:24.983Z,66.90
2022-09-18T18:13:53.945Z,66.98
2022-09-18T18:16:24.137Z,67.13
2022-09-18T18:18:54.088Z,67.67
2022-09-18T18:21:22.273Z,67.67
2022-09-18T18:23:55.452Z,67.85
2022-09-18T18:26:24.352Z,68.04
2022-09-18T18:28:52.136Z,68.17
2022-09-18T18:31:20.331Z,68.26
2022-09-18T18:33:48.047Z,68.44
2022-09-18T18:36:22.100Z,68.81
2022-09-18T18:38:52.441Z,68.55
2022-09-18T18:41:22.752Z,68.97
2022-09-18T18:43:54.919Z,69.42
2022-09-18T18:46:25.992Z,69.27
2022-09-18T18:49:02.291Z,69.47
2022-09-18T18:51:35.560Z,69.60
2022-09-18T18:54:05.473Z,69.89
2022-09-18T18:56:38.366Z,69.64
2022-09-18T18:59:16.745Z,69.89
2022-09-18T19:01:45.261Z,69.95
2022-09-18T19:07:00.386Z,70.04
2022-09-18T19:09:32.482Z,70.45
2022-09-18T19:12:07.791Z,70.68
2022-09-18T19:14:40.202Z,70.97
2022-09-18T19:17:17.718Z,71.29
2022-09-18T19:19:45.881Z,71.59
2022-09-18T19:22:22.188Z,72.49
2022-09-18T19:24:50.129Z,72.65
2022-09-18T19:27:20.153Z,73.17
2022-09-18T19:29:58.425Z,73.84
2022-09-18T19:32:27.502Z,75.14
2022-09-18T19:34:55.192Z,75.32
2022-09-18T19:37:38.132Z,75.29
2022-09-18T19:40:34.812Z,75.04
2022-09-18T19:43:25.379Z,75.17
2022-09-18T19:45:55.150Z,75.42
2022-09-18T19:48:25.136Z,75.40
2022-09-18T19:50:56.953Z,75.29
2022-09-18T19:53:24.822Z,75.47
2022-09-18T19:55:52.661Z,75.50
2022-09-18T19:58:20.099Z,75.46
2022-09-18T20:00:48.216Z,75.24
2022-09-18T20:03:21.691Z,75.22
2022-09-18T20:05:49.820Z,75.19
2022-09-18T20:08:17.514Z,75.27
2022-09-18T20:10:50.376Z,75.22
2022-09-18T20:13:25.730Z,75.17
2022-09-18T20:15:59.194Z,75.22
2022-09-18T20:18:27.174Z,75.33
2022-09-18T20:20:54.766Z,75.53
2022-09-18T20:23:22.933Z,75.40
2022-09-18T20:25:52.091Z,75.68
2022-09-18T20:28:21.663Z,75.75
2022-09-18T20:30:49.072Z,75.76
2022-09-18T20:33:16.656Z,75.89
2022-09-18T20:35:45.908Z,76.09
2022-09-18T20:38:13.340Z,76.28
2022-09-18T20:40:41.538Z,76.50
2022-09-18T20:43:09.048Z,76.44
2022-09-18T20:45:36.714Z,76.46
2022-09-18T20:48:05.984Z,76.68
2022-09-18T20:50:33.539Z,77.01
2022-09-18T20:53:02.740Z,76.82
2022-09-18T20:55:30.255Z,77.22
2022-09-18T20:58:02.032Z,77.10
2022-09-18T21:00:28.198Z,77.31
2022-09-18T21:02:55.638Z,77.52
2022-09-18T21:05:23.241Z,77.45
2022-09-18T21:07:53.583Z,77.57
2022-09-18T21:10:21.021Z,77.51
2022-09-18T21:12:48.361Z,77.83
2022-09-18T21:15:15.672Z,78.00
2022-09-18T21:17:43.163Z,78.06
2022-09-18T21:20:11.643Z,78.17
2022-09-18T21:22:40.992Z,78.30
2022-09-18T21:25:09.016Z,78.43
2022-09-18T21:27:36.355Z,78.33
2022-09-18T21:30:04.191Z,78.39
2022-09-18T21:32:31.679Z,78.44
2022-09-18T21:35:00.953Z,78.51
2022-09-18T21:37:28.400Z,78.54
2022-09-18T21:39:56.517Z,78.73
2022-09-18T21:42:25.418Z,78.72
2022-09-18T21:44:53.517Z,78.64
2022-09-18T21:47:21.031Z,78.81
2022-09-18T21:49:48.266Z,78.74
2022-09-18T21:52:16.281Z,79.00
2022-09-18T21:54:43.866Z,78.94
2022-09-18T21:57:11.598Z,78.81
2022-09-18T21:59:39.227Z,78.82
2022-09-18T22:02:08.638Z,78.85
2022-09-18T22:04:38.084Z,79.01
2022-09-18T22:07:05.712Z,79.21
2022-09-18T22:09:38.720Z,79.41
2022-09-18T22:12:07.240Z,79.23
2022-09-18T22:14:34.935Z,79.01
2022-09-18T22:17:04.875Z,79.19
2022-09-18T22:19:32.943Z,79.56
2022-09-18T22:22:01.479Z,79.67
2022-09-18T22:24:29.372Z,79.44
2022-09-18T22:27:02.104Z,79.63
2022-09-18T22:29:32.259Z,79.54
2022-09-18T22:32:00.584Z,79.50
2022-09-18T22:34:32.095Z,79.47
2022-09-18T22:37:00.237Z,79.68
2022-09-18T22:39:28.337Z,79.77
2022-09-18T22:41:56.065Z,79.95
2022-09-18T22:44:23.676Z,79.79
2022-09-18T22:46:52.447Z,79.84
2022-09-18T22:49:22.108Z,79.80
2022-09-18T22:51:50.890Z,79.98
2022-09-18T22:54:23.688Z,79.94
2022-09-18T22:56:51.707Z,79.99
2022-09-18T22:59:21.351Z,80.16
2022-09-18T23:01:55.862Z,80.18
2022-09-18T23:04:26.821Z,80.09
2022-09-18T23:06:55.577Z,80.04
2022-09-18T23:09:23.362Z,80.04
2022-09-18T23:11:54.808Z,80.05
2022-09-18T23:14:27.625Z,80.07
2022-09-18T23:16:56.386Z,80.08
2022-09-18T23:19:26.443Z,80.17
2022-09-18T23:21:54.247Z,80.11
2022-09-18T23:24:22.552Z,80.13
2022-09-18T23:26:51.981Z,80.07
2022-09-18T23:29:22.325Z,80.03
2022-09-18T23:31:58.112Z,79.92
2022-09-18T23:34:30.927Z,79.88
2022-09-18T23:36:59.167Z,79.96
2022-09-18T23:39:29.036Z,79.96
2022-09-18T23:41:58.390Z,79.99
2022-09-18T23:44:28.145Z,79.98
2022-09-18T23:46:56.009Z,79.96
2022-09-18T23:49:24.020Z,80.10
2022-09-18T23:51:53.703Z,80.02
2022-09-18T23:54:23.453Z,80.12
2022-09-18T23:56:51.769Z,80.28
2022-09-18T23:59:22.832Z,80.32
